Sanikiluaq Airport
CYSK : now visible

Airfield :











YOU CAN JOIN US ON...

 
LOGIN :

Register | Disclaimer

   EN    FR    IT 

 









Legend :    VFR   Marginal VFR   IFR   Intensive IFR   Very Intensive IFR
Visi :
Ceiling :
>= 8 km
>= 3000ft
5 to 8 km
1000 to 3000 ft
1500m to 5 km
500 to 1000 ft
800 to 1500m
200 to 500 ft
< 800m
< 200 ft
Symbols :   Thunderstorms  Fog  Heavy snow  Heavy precipitations  Wind > 20 kt






- Airport Elevation : 104 ft
- IATA code : YSK


CYSK - Sanikiluaq

CURRENT METAR :
  • 291800Z 22020KT 2SM IC DRSN SCT023 M28/M32 A2998 RMK SC3 SNW CVR/TRACE LOOSE LAST STFD OBS/NXT 301300Z SLP161

EXPIRED METARs :
  • 291700Z 21019KT 2SM IC DRSN SCT025 M29/M32 A3000 RMK SC3 CALL OUT SLP166
  • 291600Z 21017KT 2SM IC DRSN SCT053 M30/M33 A3001 RMK SC3 CALL OUT SLP170

TAF N/A
CZUL FIR / North America



MET'MAP, your aeronautical weather chart ! - Copyright ORBIFLY December 2007 - Disclaimer

ORBIFLY MET'MAP TEAM :

Programming & Development : Alexandra Zaïnal
Original concept : Baudouin d'Aumeries
Technical & hardware support : Manuel Goepfert
Assistance : Marc-Olivier Méhu




SOURCES & CREDITS :

   NOAA       Earth
Advisory